Terminal Aerodrome Forecast
Issued by NWS Albany, NY

Home | Current Version | Previous Version | Text Only | Print | Product List | Glossary On
Versions: 1 2 3 4 5 6 7 8 9 10 11 12 13 14 15 16
283
FTUS41 KALY 241727
TAFPOU
TAF
KPOU 241727Z 2418/2518 36004KT P6SM SKC
     FM242300 00000KT P6SM SKC
     FM250800 00000KT 3SM BR SCT002
     FM251300 VRB03KT P6SM SKC=

USA.gov is the U.S. government's official web portal to all federal, state and local government web resources and services.